sensor_id;sensor_type;location;lat;lon;timestamp;P1;durP1;ratioP1;P2;durP2;ratioP2
18136;SDS011;9194;42.632;23.298;2022-12-13T00:03:11;4.90;;;3.50;;
18136;SDS011;9194;42.632;23.298;2022-12-13T00:08:12;7.57;;;4.23;;
18136;SDS011;9194;42.632;23.298;2022-12-13T00:13:16;8.27;;;4.20;;
18136;SDS011;9194;42.632;23.298;2022-12-13T00:18:18;10.07;;;4.30;;
18136;SDS011;9194;42.632;23.298;2022-12-13T00:23:19;5.17;;;3.70;;
18136;SDS011;9194;42.632;23.298;2022-12-13T00:28:21;6.70;;;3.60;;
18136;SDS011;9194;42.632;23.298;2022-12-13T00:33:22;4.83;;;3.73;;
18136;SDS011;9194;42.632;23.298;2022-12-13T00:38:23;6.70;;;4.23;;
18136;SDS011;9194;42.632;23.298;2022-12-13T00:43:25;5.17;;;3.97;;
18136;SDS011;9194;42.632;23.298;2022-12-13T00:48:26;4.77;;;3.60;;
18136;SDS011;9194;42.632;23.298;2022-12-13T00:53:28;6.00;;;3.57;;
18136;SDS011;9194;42.632;23.298;2022-12-13T00:58:29;5.53;;;3.50;;
18136;SDS011;9194;42.632;23.298;2022-12-13T01:03:31;6.00;;;3.80;;
18136;SDS011;9194;42.632;23.298;2022-12-13T01:08:32;3.33;;;2.73;;
18136;SDS011;9194;42.632;23.298;2022-12-13T01:13:34;4.67;;;3.30;;
18136;SDS011;9194;42.632;23.298;2022-12-13T01:18:35;4.60;;;3.30;;
18136;SDS011;9194;42.632;23.298;2022-12-13T01:23:38;6.87;;;4.17;;
18136;SDS011;9194;42.632;23.298;2022-12-13T01:28:40;5.83;;;4.07;;
18136;SDS011;9194;42.632;23.298;2022-12-13T01:33:43;7.57;;;3.63;;
18136;SDS011;9194;42.632;23.298;2022-12-13T01:38:44;7.80;;;4.10;;
18136;SDS011;9194;42.632;23.298;2022-12-13T01:53:54;4.00;;;2.97;;
18136;SDS011;9194;42.632;23.298;2022-12-13T01:58:58;4.00;;;3.17;;
18136;SDS011;9194;42.632;23.298;2022-12-13T02:04:02;8.63;;;3.43;;
18136;SDS011;9194;42.632;23.298;2022-12-13T02:09:04;5.17;;;3.87;;
18136;SDS011;9194;42.632;23.298;2022-12-13T02:14:07;6.20;;;4.17;;
18136;SDS011;9194;42.632;23.298;2022-12-13T02:35:30;14.83;;;6.10;;
18136;SDS011;9194;42.632;23.298;2022-12-13T02:40:46;9.27;;;4.70;;
18136;SDS011;9194;42.632;23.298;2022-12-13T02:45:56;7.60;;;4.67;;
18136;SDS011;9194;42.632;23.298;2022-12-13T02:51:01;10.40;;;4.80;;
18136;SDS011;9194;42.632;23.298;2022-12-13T02:56:04;6.30;;;4.37;;
18136;SDS011;9194;42.632;23.298;2022-12-13T03:01:26;7.73;;;4.20;;
18136;SDS011;9194;42.632;23.298;2022-12-13T03:06:55;7.03;;;5.03;;
18136;SDS011;9194;42.632;23.298;2022-12-13T03:17:33;8.07;;;5.03;;
18136;SDS011;9194;42.632;23.298;2022-12-13T03:22:41;9.17;;;4.50;;
18136;SDS011;9194;42.632;23.298;2022-12-13T03:27:42;8.77;;;5.17;;
18136;SDS011;9194;42.632;23.298;2022-12-13T03:32:43;10.60;;;5.37;;
18136;SDS011;9194;42.632;23.298;2022-12-13T03:37:45;13.30;;;7.10;;
18136;SDS011;9194;42.632;23.298;2022-12-13T03:42:46;16.77;;;8.33;;
18136;SDS011;9194;42.632;23.298;2022-12-13T03:47:47;12.43;;;6.70;;
18136;SDS011;9194;42.632;23.298;2022-12-13T03:52:49;10.37;;;5.17;;
18136;SDS011;9194;42.632;23.298;2022-12-13T03:57:53;8.40;;;4.83;;
18136;SDS011;9194;42.632;23.298;2022-12-13T04:02:54;8.03;;;4.77;;
18136;SDS011;9194;42.632;23.298;2022-12-13T04:07:56;9.40;;;4.47;;
18136;SDS011;9194;42.632;23.298;2022-12-13T04:12:57;5.23;;;3.27;;
18136;SDS011;9194;42.632;23.298;2022-12-13T04:18:17;6.27;;;3.60;;
18136;SDS011;9194;42.632;23.298;2022-12-13T04:23:19;6.30;;;3.63;;
18136;SDS011;9194;42.632;23.298;2022-12-13T04:28:20;5.77;;;3.50;;
18136;SDS011;9194;42.632;23.298;2022-12-13T04:33:22;5.33;;;3.50;;
18136;SDS011;9194;42.632;23.298;2022-12-13T04:38:24;3.93;;;2.63;;
18136;SDS011;9194;42.632;23.298;2022-12-13T04:43:26;6.03;;;3.20;;
18136;SDS011;9194;42.632;23.298;2022-12-13T04:48:27;4.50;;;3.40;;
18136;SDS011;9194;42.632;23.298;2022-12-13T04:53:28;5.43;;;2.80;;
18136;SDS011;9194;42.632;23.298;2022-12-13T04:58:30;5.63;;;2.60;;
18136;SDS011;9194;42.632;23.298;2022-12-13T05:03:31;3.50;;;3.03;;
18136;SDS011;9194;42.632;23.298;2022-12-13T05:08:33;7.93;;;3.57;;
18136;SDS011;9194;42.632;23.298;2022-12-13T05:13:36;8.53;;;3.67;;
18136;SDS011;9194;42.632;23.298;2022-12-13T05:18:38;7.50;;;4.13;;
18136;SDS011;9194;42.632;23.298;2022-12-13T05:23:39;10.03;;;5.33;;
18136;SDS011;9194;42.632;23.298;2022-12-13T05:28:41;12.70;;;5.50;;
18136;SDS011;9194;42.632;23.298;2022-12-13T05:33:42;10.90;;;6.10;;
18136;SDS011;9194;42.632;23.298;2022-12-13T05:38:43;9.00;;;4.97;;
18136;SDS011;9194;42.632;23.298;2022-12-13T05:43:45;14.93;;;6.23;;
18136;SDS011;9194;42.632;23.298;2022-12-13T05:48:46;13.50;;;7.13;;
18136;SDS011;9194;42.632;23.298;2022-12-13T05:53:48;15.07;;;7.40;;
18136;SDS011;9194;42.632;23.298;2022-12-13T05:58:49;15.23;;;6.90;;
18136;SDS011;9194;42.632;23.298;2022-12-13T06:03:51;14.63;;;7.87;;
18136;SDS011;9194;42.632;23.298;2022-12-13T06:08:52;14.37;;;6.83;;
18136;SDS011;9194;42.632;23.298;2022-12-13T06:13:53;15.33;;;6.80;;
18136;SDS011;9194;42.632;23.298;2022-12-13T06:18:55;12.30;;;6.53;;
18136;SDS011;9194;42.632;23.298;2022-12-13T06:23:56;16.87;;;6.93;;
18136;SDS011;9194;42.632;23.298;2022-12-13T06:28:57;14.60;;;7.30;;
18136;SDS011;9194;42.632;23.298;2022-12-13T06:34:02;13.70;;;7.93;;
18136;SDS011;9194;42.632;23.298;2022-12-13T06:39:04;22.00;;;8.60;;
18136;SDS011;9194;42.632;23.298;2022-12-13T06:44:06;15.47;;;8.53;;
18136;SDS011;9194;42.632;23.298;2022-12-13T06:49:08;20.70;;;9.50;;
18136;SDS011;9194;42.632;23.298;2022-12-13T06:54:09;16.77;;;8.73;;
18136;SDS011;9194;42.632;23.298;2022-12-13T06:59:11;22.63;;;9.33;;
18136;SDS011;9194;42.632;23.298;2022-12-13T07:04:12;16.27;;;8.60;;
18136;SDS011;9194;42.632;23.298;2022-12-13T07:09:14;17.17;;;8.20;;
18136;SDS011;9194;42.632;23.298;2022-12-13T07:14:15;21.30;;;8.87;;
18136;SDS011;9194;42.632;23.298;2022-12-13T07:19:17;15.80;;;7.60;;
18136;SDS011;9194;42.632;23.298;2022-12-13T07:24:19;18.47;;;9.33;;
18136;SDS011;9194;42.632;23.298;2022-12-13T07:29:20;23.00;;;9.97;;
18136;SDS011;9194;42.632;23.298;2022-12-13T07:34:21;18.07;;;8.40;;
18136;SDS011;9194;42.632;23.298;2022-12-13T07:39:23;17.63;;;8.80;;
18136;SDS011;9194;42.632;23.298;2022-12-13T07:44:28;17.10;;;8.60;;
18136;SDS011;9194;42.632;23.298;2022-12-13T07:49:29;24.80;;;11.50;;
18136;SDS011;9194;42.632;23.298;2022-12-13T07:54:31;27.93;;;12.33;;
18136;SDS011;9194;42.632;23.298;2022-12-13T07:59:33;27.00;;;12.07;;
18136;SDS011;9194;42.632;23.298;2022-12-13T08:04:34;25.43;;;12.40;;
18136;SDS011;9194;42.632;23.298;2022-12-13T08:09:35;24.47;;;11.20;;
18136;SDS011;9194;42.632;23.298;2022-12-13T08:14:37;23.33;;;10.10;;
18136;SDS011;9194;42.632;23.298;2022-12-13T08:19:39;24.03;;;10.83;;
18136;SDS011;9194;42.632;23.298;2022-12-13T08:24:40;23.97;;;10.57;;
18136;SDS011;9194;42.632;23.298;2022-12-13T08:29:41;23.23;;;10.73;;
18136;SDS011;9194;42.632;23.298;2022-12-13T08:34:43;27.67;;;11.20;;
18136;SDS011;9194;42.632;23.298;2022-12-13T08:39:45;24.53;;;11.87;;
18136;SDS011;9194;42.632;23.298;2022-12-13T08:44:47;29.00;;;11.60;;
18136;SDS011;9194;42.632;23.298;2022-12-13T08:49:49;22.83;;;11.33;;
18136;SDS011;9194;42.632;23.298;2022-12-13T08:54:51;27.13;;;11.80;;
18136;SDS011;9194;42.632;23.298;2022-12-13T08:59:53;27.37;;;11.47;;
18136;SDS011;9194;42.632;23.298;2022-12-13T09:04:55;25.47;;;11.93;;
18136;SDS011;9194;42.632;23.298;2022-12-13T09:09:57;23.93;;;10.23;;
18136;SDS011;9194;42.632;23.298;2022-12-13T09:14:58;19.23;;;10.57;;
18136;SDS011;9194;42.632;23.298;2022-12-13T09:19:59;22.57;;;11.00;;
18136;SDS011;9194;42.632;23.298;2022-12-13T09:25:02;23.53;;;11.10;;
18136;SDS011;9194;42.632;23.298;2022-12-13T09:30:04;24.37;;;10.70;;
18136;SDS011;9194;42.632;23.298;2022-12-13T09:35:06;18.93;;;9.23;;
18136;SDS011;9194;42.632;23.298;2022-12-13T09:40:09;23.27;;;11.33;;
18136;SDS011;9194;42.632;23.298;2022-12-13T09:45:18;25.57;;;12.20;;
18136;SDS011;9194;42.632;23.298;2022-12-13T09:50:33;25.57;;;10.40;;
18136;SDS011;9194;42.632;23.298;2022-12-13T09:55:37;22.20;;;11.37;;
18136;SDS011;9194;42.632;23.298;2022-12-13T10:00:41;29.30;;;10.83;;
18136;SDS011;9194;42.632;23.298;2022-12-13T10:05:44;21.67;;;10.87;;
18136;SDS011;9194;42.632;23.298;2022-12-13T10:10:52;23.33;;;10.57;;
18136;SDS011;9194;42.632;23.298;2022-12-13T10:15:56;26.60;;;10.30;;
18136;SDS011;9194;42.632;23.298;2022-12-13T10:21:02;18.53;;;9.00;;
18136;SDS011;9194;42.632;23.298;2022-12-13T10:26:09;18.53;;;8.77;;
18136;SDS011;9194;42.632;23.298;2022-12-13T10:31:18;23.53;;;9.07;;
18136;SDS011;9194;42.632;23.298;2022-12-13T10:36:33;17.03;;;7.17;;
18136;SDS011;9194;42.632;23.298;2022-12-13T10:41:36;11.63;;;6.37;;
18136;SDS011;9194;42.632;23.298;2022-12-13T10:46:40;13.70;;;6.47;;
18136;SDS011;9194;42.632;23.298;2022-12-13T10:51:47;9.00;;;5.57;;
18136;SDS011;9194;42.632;23.298;2022-12-13T10:56:50;13.73;;;7.33;;
18136;SDS011;9194;42.632;23.298;2022-12-13T11:01:53;14.53;;;6.80;;
18136;SDS011;9194;42.632;23.298;2022-12-13T11:06:55;12.93;;;7.17;;
18136;SDS011;9194;42.632;23.298;2022-12-13T11:12:00;14.30;;;7.30;;
18136;SDS011;9194;42.632;23.298;2022-12-13T11:17:04;11.93;;;6.07;;
18136;SDS011;9194;42.632;23.298;2022-12-13T11:22:09;11.40;;;5.70;;
18136;SDS011;9194;42.632;23.298;2022-12-13T11:48:18;14.63;;;7.17;;
18136;SDS011;9194;42.632;23.298;2022-12-13T11:53:29;12.73;;;6.73;;
18136;SDS011;9194;42.632;23.298;2022-12-13T11:58:46;14.97;;;6.20;;
18136;SDS011;9194;42.632;23.298;2022-12-13T12:09:14;11.13;;;5.63;;
18136;SDS011;9194;42.632;23.298;2022-12-13T12:14:23;9.47;;;6.30;;
18136;SDS011;9194;42.632;23.298;2022-12-13T12:19:49;12.33;;;6.87;;
18136;SDS011;9194;42.632;23.298;2022-12-13T12:41:27;10.90;;;5.90;;
18136;SDS011;9194;42.632;23.298;2022-12-13T12:46:50;9.07;;;5.57;;
18136;SDS011;9194;42.632;23.298;2022-12-13T12:52:08;10.13;;;5.13;;
18136;SDS011;9194;42.632;23.298;2022-12-13T13:02:28;15.93;;;7.43;;
18136;SDS011;9194;42.632;23.298;2022-12-13T13:07:38;9.03;;;5.43;;
18136;SDS011;9194;42.632;23.298;2022-12-13T13:12:48;10.33;;;5.40;;
18136;SDS011;9194;42.632;23.298;2022-12-13T13:17:49;10.47;;;5.13;;
18136;SDS011;9194;42.632;23.298;2022-12-13T13:22:54;7.37;;;5.07;;
18136;SDS011;9194;42.632;23.298;2022-12-13T13:28:00;10.07;;;5.90;;
18136;SDS011;9194;42.632;23.298;2022-12-13T13:33:02;10.33;;;5.63;;
18136;SDS011;9194;42.632;23.298;2022-12-13T13:43:28;23.47;;;9.33;;
18136;SDS011;9194;42.632;23.298;2022-12-13T14:20:42;22.20;;;10.03;;
18136;SDS011;9194;42.632;23.298;2022-12-13T14:31:00;17.40;;;9.10;;
18136;SDS011;9194;42.632;23.298;2022-12-13T14:36:01;24.87;;;11.00;;
18136;SDS011;9194;42.632;23.298;2022-12-13T14:41:04;19.97;;;9.73;;
18136;SDS011;9194;42.632;23.298;2022-12-13T14:46:07;17.97;;;9.03;;
18136;SDS011;9194;42.632;23.298;2022-12-13T14:56:30;17.67;;;8.70;;
18136;SDS011;9194;42.632;23.298;2022-12-13T15:01:33;15.30;;;7.83;;
18136;SDS011;9194;42.632;23.298;2022-12-13T15:06:36;15.13;;;7.87;;
18136;SDS011;9194;42.632;23.298;2022-12-13T15:11:37;18.47;;;7.67;;
18136;SDS011;9194;42.632;23.298;2022-12-13T15:16:38;12.23;;;7.43;;
18136;SDS011;9194;42.632;23.298;2022-12-13T15:22:03;18.17;;;8.20;;
18136;SDS011;9194;42.632;23.298;2022-12-13T15:27:19;14.73;;;7.50;;
18136;SDS011;9194;42.632;23.298;2022-12-13T15:32:22;26.70;;;7.60;;
18136;SDS011;9194;42.632;23.298;2022-12-13T15:37:26;15.20;;;6.60;;
18136;SDS011;9194;42.632;23.298;2022-12-13T15:42:32;11.50;;;6.13;;
18136;SDS011;9194;42.632;23.298;2022-12-13T15:47:36;10.87;;;6.13;;
18136;SDS011;9194;42.632;23.298;2022-12-13T15:52:38;9.87;;;5.73;;
18136;SDS011;9194;42.632;23.298;2022-12-13T15:57:50;12.90;;;6.73;;
18136;SDS011;9194;42.632;23.298;2022-12-13T16:02:54;11.50;;;5.47;;
18136;SDS011;9194;42.632;23.298;2022-12-13T16:07:59;9.13;;;5.63;;
18136;SDS011;9194;42.632;23.298;2022-12-13T16:13:04;12.50;;;6.33;;
18136;SDS011;9194;42.632;23.298;2022-12-13T16:18:11;8.87;;;5.70;;
18136;SDS011;9194;42.632;23.298;2022-12-13T16:23:19;10.80;;;5.10;;
18136;SDS011;9194;42.632;23.298;2022-12-13T16:28:20;10.20;;;5.77;;
18136;SDS011;9194;42.632;23.298;2022-12-13T16:33:22;15.33;;;6.20;;
18136;SDS011;9194;42.632;23.298;2022-12-13T16:38:24;12.13;;;6.20;;
18136;SDS011;9194;42.632;23.298;2022-12-13T16:43:27;12.07;;;6.30;;
18136;SDS011;9194;42.632;23.298;2022-12-13T16:48:31;14.93;;;7.60;;
18136;SDS011;9194;42.632;23.298;2022-12-13T16:53:33;11.97;;;6.40;;
18136;SDS011;9194;42.632;23.298;2022-12-13T16:58:34;12.93;;;7.00;;
18136;SDS011;9194;42.632;23.298;2022-12-13T17:03:36;14.13;;;5.90;;
18136;SDS011;9194;42.632;23.298;2022-12-13T17:08:38;11.30;;;6.37;;
18136;SDS011;9194;42.632;23.298;2022-12-13T17:13:39;15.30;;;7.87;;
18136;SDS011;9194;42.632;23.298;2022-12-13T17:18:40;15.80;;;8.33;;
18136;SDS011;9194;42.632;23.298;2022-12-13T17:23:41;13.07;;;7.17;;
18136;SDS011;9194;42.632;23.298;2022-12-13T17:28:43;19.97;;;7.57;;
18136;SDS011;9194;42.632;23.298;2022-12-13T17:33:44;13.40;;;8.23;;
18136;SDS011;9194;42.632;23.298;2022-12-13T17:38:46;32.03;;;14.57;;
18136;SDS011;9194;42.632;23.298;2022-12-13T17:43:47;44.10;;;17.57;;
18136;SDS011;9194;42.632;23.298;2022-12-13T17:48:49;51.37;;;21.37;;
18136;SDS011;9194;42.632;23.298;2022-12-13T17:53:50;65.90;;;26.33;;
18136;SDS011;9194;42.632;23.298;2022-12-13T17:58:52;70.73;;;27.80;;
18136;SDS011;9194;42.632;23.298;2022-12-13T18:03:54;74.07;;;25.83;;
18136;SDS011;9194;42.632;23.298;2022-12-13T18:08:57;60.60;;;24.70;;
18136;SDS011;9194;42.632;23.298;2022-12-13T18:14:03;73.97;;;28.47;;
18136;SDS011;9194;42.632;23.298;2022-12-13T18:19:05;70.47;;;29.40;;
18136;SDS011;9194;42.632;23.298;2022-12-13T18:24:09;82.00;;;31.23;;
18136;SDS011;9194;42.632;23.298;2022-12-13T18:29:12;80.60;;;33.23;;
18136;SDS011;9194;42.632;23.298;2022-12-13T18:34:13;86.23;;;34.77;;
18136;SDS011;9194;42.632;23.298;2022-12-13T18:39:14;78.57;;;31.93;;
18136;SDS011;9194;42.632;23.298;2022-12-13T18:44:17;59.37;;;24.50;;
18136;SDS011;9194;42.632;23.298;2022-12-13T18:49:18;52.87;;;20.87;;
18136;SDS011;9194;42.632;23.298;2022-12-13T18:54:19;46.00;;;19.63;;
18136;SDS011;9194;42.632;23.298;2022-12-13T18:59:21;50.60;;;20.57;;
18136;SDS011;9194;42.632;23.298;2022-12-13T19:04:22;39.87;;;18.73;;
18136;SDS011;9194;42.632;23.298;2022-12-13T19:09:23;46.20;;;19.67;;
18136;SDS011;9194;42.632;23.298;2022-12-13T19:14:25;50.57;;;21.20;;
18136;SDS011;9194;42.632;23.298;2022-12-13T19:19:27;47.70;;;19.50;;
18136;SDS011;9194;42.632;23.298;2022-12-13T19:24:29;49.90;;;21.57;;
18136;SDS011;9194;42.632;23.298;2022-12-13T19:29:30;53.13;;;23.07;;
18136;SDS011;9194;42.632;23.298;2022-12-13T19:34:32;49.80;;;21.83;;
18136;SDS011;9194;42.632;23.298;2022-12-13T19:39:33;59.33;;;25.93;;
18136;SDS011;9194;42.632;23.298;2022-12-13T19:44:35;42.40;;;18.93;;
18136;SDS011;9194;42.632;23.298;2022-12-13T19:49:36;53.03;;;20.23;;
18136;SDS011;9194;42.632;23.298;2022-12-13T19:54:38;39.03;;;16.73;;
18136;SDS011;9194;42.632;23.298;2022-12-13T19:59:40;49.70;;;19.63;;
18136;SDS011;9194;42.632;23.298;2022-12-13T20:04:41;43.47;;;20.10;;
18136;SDS011;9194;42.632;23.298;2022-12-13T20:09:44;63.73;;;25.00;;
18136;SDS011;9194;42.632;23.298;2022-12-13T20:14:46;57.43;;;24.40;;
18136;SDS011;9194;42.632;23.298;2022-12-13T20:19:48;55.53;;;23.10;;
18136;SDS011;9194;42.632;23.298;2022-12-13T20:24:49;54.07;;;22.00;;
18136;SDS011;9194;42.632;23.298;2022-12-13T20:29:50;50.37;;;19.63;;
18136;SDS011;9194;42.632;23.298;2022-12-13T20:34:52;48.67;;;20.13;;
18136;SDS011;9194;42.632;23.298;2022-12-13T20:39:53;51.60;;;20.33;;
18136;SDS011;9194;42.632;23.298;2022-12-13T20:44:58;44.03;;;20.57;;
18136;SDS011;9194;42.632;23.298;2022-12-13T20:49:59;55.70;;;21.70;;
18136;SDS011;9194;42.632;23.298;2022-12-13T20:55:01;46.93;;;19.80;;
18136;SDS011;9194;42.632;23.298;2022-12-13T21:00:03;49.97;;;21.97;;
18136;SDS011;9194;42.632;23.298;2022-12-13T21:05:05;47.47;;;21.47;;
18136;SDS011;9194;42.632;23.298;2022-12-13T21:10:06;49.40;;;23.13;;
18136;SDS011;9194;42.632;23.298;2022-12-13T21:15:08;53.13;;;24.40;;
18136;SDS011;9194;42.632;23.298;2022-12-13T21:20:09;56.10;;;23.60;;
18136;SDS011;9194;42.632;23.298;2022-12-13T21:25:11;59.40;;;23.50;;
18136;SDS011;9194;42.632;23.298;2022-12-13T21:30:12;58.10;;;23.47;;
18136;SDS011;9194;42.632;23.298;2022-12-13T21:35:14;60.13;;;23.50;;
18136;SDS011;9194;42.632;23.298;2022-12-13T21:40:15;55.20;;;23.70;;
18136;SDS011;9194;42.632;23.298;2022-12-13T21:45:22;62.40;;;26.87;;
18136;SDS011;9194;42.632;23.298;2022-12-13T21:50:24;68.37;;;27.10;;
18136;SDS011;9194;42.632;23.298;2022-12-13T21:55:25;70.27;;;28.03;;
18136;SDS011;9194;42.632;23.298;2022-12-13T22:00:27;58.67;;;23.70;;
18136;SDS011;9194;42.632;23.298;2022-12-13T22:05:28;59.73;;;22.97;;
18136;SDS011;9194;42.632;23.298;2022-12-13T22:10:29;53.87;;;22.63;;
18136;SDS011;9194;42.632;23.298;2022-12-13T22:15:32;46.97;;;21.37;;
18136;SDS011;9194;42.632;23.298;2022-12-13T22:20:33;49.87;;;20.33;;
18136;SDS011;9194;42.632;23.298;2022-12-13T22:25:35;46.17;;;20.40;;
18136;SDS011;9194;42.632;23.298;2022-12-13T22:30:37;45.90;;;20.33;;
18136;SDS011;9194;42.632;23.298;2022-12-13T22:35:38;54.10;;;20.60;;
18136;SDS011;9194;42.632;23.298;2022-12-13T22:40:40;45.10;;;19.90;;
18136;SDS011;9194;42.632;23.298;2022-12-13T22:45:41;46.37;;;20.43;;
18136;SDS011;9194;42.632;23.298;2022-12-13T22:50:42;40.60;;;19.63;;
18136;SDS011;9194;42.632;23.298;2022-12-13T22:55:44;45.43;;;19.90;;
18136;SDS011;9194;42.632;23.298;2022-12-13T23:00:45;36.50;;;18.23;;
18136;SDS011;9194;42.632;23.298;2022-12-13T23:05:47;37.53;;;18.43;;
18136;SDS011;9194;42.632;23.298;2022-12-13T23:10:48;41.60;;;18.77;;
18136;SDS011;9194;42.632;23.298;2022-12-13T23:16:08;40.53;;;18.83;;
18136;SDS011;9194;42.632;23.298;2022-12-13T23:21:09;43.20;;;19.17;;
18136;SDS011;9194;42.632;23.298;2022-12-13T23:26:12;44.90;;;19.17;;
18136;SDS011;9194;42.632;23.298;2022-12-13T23:31:18;46.40;;;20.73;;
18136;SDS011;9194;42.632;23.298;2022-12-13T23:36:21;44.87;;;21.53;;
18136;SDS011;9194;42.632;23.298;2022-12-13T23:41:25;52.53;;;22.67;;
18136;SDS011;9194;42.632;23.298;2022-12-13T23:46:28;54.43;;;22.43;;
18136;SDS011;9194;42.632;23.298;2022-12-13T23:51:32;51.80;;;21.30;;
18136;SDS011;9194;42.632;23.298;2022-12-13T23:56:34;47.53;;;21.67;;
